sensor_id;sensor_type;location;lat;lon;timestamp;temperature;humidity
13093;DHT22;6612;49.568;11.000;2023-10-31T00:00:45;17.00;77.10
13093;DHT22;6612;49.568;11.000;2023-10-31T00:03:12;17.00;77.10
13093;DHT22;6612;49.568;11.000;2023-10-31T00:05:39;17.00;77.10
13093;DHT22;6612;49.568;11.000;2023-10-31T00:08:07;17.00;77.10
13093;DHT22;6612;49.568;11.000;2023-10-31T00:10:34;17.00;77.10
13093;DHT22;6612;49.568;11.000;2023-10-31T00:13:01;17.00;77.10
13093;DHT22;6612;49.568;11.000;2023-10-31T00:15:28;17.00;77.10
13093;DHT22;6612;49.568;11.000;2023-10-31T00:17:56;16.90;77.00
13093;DHT22;6612;49.568;11.000;2023-10-31T00:20:23;16.90;77.10
13093;DHT22;6612;49.568;11.000;2023-10-31T00:22:50;16.90;77.20
13093;DHT22;6612;49.568;11.000;2023-10-31T00:25:18;16.90;77.20
13093;DHT22;6612;49.568;11.000;2023-10-31T00:27:45;16.90;77.40
13093;DHT22;6612;49.568;11.000;2023-10-31T00:30:12;16.90;77.60
13093;DHT22;6612;49.568;11.000;2023-10-31T00:32:39;16.90;77.70
13093;DHT22;6612;49.568;11.000;2023-10-31T00:35:07;16.90;77.70
13093;DHT22;6612;49.568;11.000;2023-10-31T00:37:33;16.90;77.70
13093;DHT22;6612;49.568;11.000;2023-10-31T00:40:00;16.90;77.60
13093;DHT22;6612;49.568;11.000;2023-10-31T00:42:28;16.90;77.60
13093;DHT22;6612;49.568;11.000;2023-10-31T00:44:55;16.90;77.50
13093;DHT22;6612;49.568;11.000;2023-10-31T00:47:22;16.90;77.40
13093;DHT22;6612;49.568;11.000;2023-10-31T00:49:49;16.90;77.40
13093;DHT22;6612;49.568;11.000;2023-10-31T00:52:18;16.90;77.40
13093;DHT22;6612;49.568;11.000;2023-10-31T00:54:45;16.90;77.40
13093;DHT22;6612;49.568;11.000;2023-10-31T00:57:12;16.90;77.50
13093;DHT22;6612;49.568;11.000;2023-10-31T00:59:40;16.90;77.60
13093;DHT22;6612;49.568;11.000;2023-10-31T01:02:08;16.90;77.70
13093;DHT22;6612;49.568;11.000;2023-10-31T01:04:36;16.90;77.70
13093;DHT22;6612;49.568;11.000;2023-10-31T01:07:03;16.90;77.60
13093;DHT22;6612;49.568;11.000;2023-10-31T01:09:30;16.90;77.50
13093;DHT22;6612;49.568;11.000;2023-10-31T01:11:57;16.90;77.50
13093;DHT22;6612;49.568;11.000;2023-10-31T01:14:24;16.90;77.50
13093;DHT22;6612;49.568;11.000;2023-10-31T01:16:52;16.90;77.50
13093;DHT22;6612;49.568;11.000;2023-10-31T01:19:19;16.90;77.50
13093;DHT22;6612;49.568;11.000;2023-10-31T01:21:46;16.90;77.50
13093;DHT22;6612;49.568;11.000;2023-10-31T01:24:13;16.90;77.50
13093;DHT22;6612;49.568;11.000;2023-10-31T01:26:40;16.90;77.40
13093;DHT22;6612;49.568;11.000;2023-10-31T01:29:07;16.90;77.50
13093;DHT22;6612;49.568;11.000;2023-10-31T01:31:34;16.90;77.50
13093;DHT22;6612;49.568;11.000;2023-10-31T01:34:03;16.90;77.40
13093;DHT22;6612;49.568;11.000;2023-10-31T01:36:30;16.90;77.30
13093;DHT22;6612;49.568;11.000;2023-10-31T01:38:57;16.90;77.30
13093;DHT22;6612;49.568;11.000;2023-10-31T01:41:24;16.90;77.20
13093;DHT22;6612;49.568;11.000;2023-10-31T01:43:51;16.90;77.10
13093;DHT22;6612;49.568;11.000;2023-10-31T01:46:18;16.90;77.10
13093;DHT22;6612;49.568;11.000;2023-10-31T01:48:45;16.90;77.20
13093;DHT22;6612;49.568;11.000;2023-10-31T01:51:14;16.90;77.30
13093;DHT22;6612;49.568;11.000;2023-10-31T01:53:41;16.90;77.20
13093;DHT22;6612;49.568;11.000;2023-10-31T01:56:08;16.90;77.40
13093;DHT22;6612;49.568;11.000;2023-10-31T01:58:36;16.90;77.30
13093;DHT22;6612;49.568;11.000;2023-10-31T02:01:04;16.90;77.20
13093;DHT22;6612;49.568;11.000;2023-10-31T02:03:32;16.90;77.30
13093;DHT22;6612;49.568;11.000;2023-10-31T02:05:59;16.90;77.30
13093;DHT22;6612;49.568;11.000;2023-10-31T02:08:27;16.80;77.10
13093;DHT22;6612;49.568;11.000;2023-10-31T02:10:54;16.80;77.00
13093;DHT22;6612;49.568;11.000;2023-10-31T02:13:21;16.80;76.90
13093;DHT22;6612;49.568;11.000;2023-10-31T02:15:49;16.80;76.80
13093;DHT22;6612;49.568;11.000;2023-10-31T02:18:16;16.80;76.60
13093;DHT22;6612;49.568;11.000;2023-10-31T02:20:43;16.80;76.60
13093;DHT22;6612;49.568;11.000;2023-10-31T02:23:12;16.80;76.50
13093;DHT22;6612;49.568;11.000;2023-10-31T02:25:40;16.80;76.50
13093;DHT22;6612;49.568;11.000;2023-10-31T02:28:07;16.80;76.50
13093;DHT22;6612;49.568;11.000;2023-10-31T02:30:35;16.80;76.50
13093;DHT22;6612;49.568;11.000;2023-10-31T02:33:02;16.80;76.50
13093;DHT22;6612;49.568;11.000;2023-10-31T02:35:29;16.80;76.40
13093;DHT22;6612;49.568;11.000;2023-10-31T02:37:56;16.70;76.20
13093;DHT22;6612;49.568;11.000;2023-10-31T02:40:24;16.70;76.10
13093;DHT22;6612;49.568;11.000;2023-10-31T02:42:51;16.70;75.90
13093;DHT22;6612;49.568;11.000;2023-10-31T02:45:18;16.70;75.80
13093;DHT22;6612;49.568;11.000;2023-10-31T02:47:45;16.70;75.60
13093;DHT22;6612;49.568;11.000;2023-10-31T02:50:12;16.60;75.40
13093;DHT22;6612;49.568;11.000;2023-10-31T02:52:39;16.60;75.20
13093;DHT22;6612;49.568;11.000;2023-10-31T02:55:07;16.60;75.00
13093;DHT22;6612;49.568;11.000;2023-10-31T02:57:35;16.60;75.00
13093;DHT22;6612;49.568;11.000;2023-10-31T03:00:02;16.60;74.90
13093;DHT22;6612;49.568;11.000;2023-10-31T03:02:30;16.50;74.80
13093;DHT22;6612;49.568;11.000;2023-10-31T03:04:57;16.50;74.70
13093;DHT22;6612;49.568;11.000;2023-10-31T03:07:24;16.50;74.60
13093;DHT22;6612;49.568;11.000;2023-10-31T03:09:51;16.50;74.60
13093;DHT22;6612;49.568;11.000;2023-10-31T03:12:19;16.40;74.40
13093;DHT22;6612;49.568;11.000;2023-10-31T03:14:48;16.40;74.40
13093;DHT22;6612;49.568;11.000;2023-10-31T03:17:15;16.30;74.30
13093;DHT22;6612;49.568;11.000;2023-10-31T03:19:42;16.30;74.40
13093;DHT22;6612;49.568;11.000;2023-10-31T03:22:09;16.30;74.60
13093;DHT22;6612;49.568;11.000;2023-10-31T03:24:36;16.20;74.50
13093;DHT22;6612;49.568;11.000;2023-10-31T03:27:03;16.20;74.50
13093;DHT22;6612;49.568;11.000;2023-10-31T03:29:30;16.20;74.50
13093;DHT22;6612;49.568;11.000;2023-10-31T03:31:58;16.20;74.40
13093;DHT22;6612;49.568;11.000;2023-10-31T03:34:25;16.20;74.10
13093;DHT22;6612;49.568;11.000;2023-10-31T03:36:52;16.10;74.10
13093;DHT22;6612;49.568;11.000;2023-10-31T03:39:19;16.10;74.10
13093;DHT22;6612;49.568;11.000;2023-10-31T03:41:46;16.10;74.00
13093;DHT22;6612;49.568;11.000;2023-10-31T03:44:13;16.00;73.80
13093;DHT22;6612;49.568;11.000;2023-10-31T03:46:40;16.00;73.60
13093;DHT22;6612;49.568;11.000;2023-10-31T03:49:08;15.90;73.40
13093;DHT22;6612;49.568;11.000;2023-10-31T03:51:35;16.00;73.30
13093;DHT22;6612;49.568;11.000;2023-10-31T03:54:02;15.90;73.20
13093;DHT22;6612;49.568;11.000;2023-10-31T03:56:29;15.90;74.00
13093;DHT22;6612;49.568;11.000;2023-10-31T03:58:56;15.80;73.10
13093;DHT22;6612;49.568;11.000;2023-10-31T04:01:23;15.80;73.10
13093;DHT22;6612;49.568;11.000;2023-10-31T04:03:50;15.80;73.10
13093;DHT22;6612;49.568;11.000;2023-10-31T04:06:19;15.70;72.90
13093;DHT22;6612;49.568;11.000;2023-10-31T04:08:46;15.70;72.50
13093;DHT22;6612;49.568;11.000;2023-10-31T04:11:12;15.70;72.70
13093;DHT22;6612;49.568;11.000;2023-10-31T04:13:39;15.60;72.70
13093;DHT22;6612;49.568;11.000;2023-10-31T04:16:07;15.60;72.60
13093;DHT22;6612;49.568;11.000;2023-10-31T04:18:35;15.50;72.50
13093;DHT22;6612;49.568;11.000;2023-10-31T04:21:02;15.50;72.60
13093;DHT22;6612;49.568;11.000;2023-10-31T04:23:31;15.50;72.60
13093;DHT22;6612;49.568;11.000;2023-10-31T04:25:58;15.40;72.40
13093;DHT22;6612;49.568;11.000;2023-10-31T04:28:25;15.40;72.40
13093;DHT22;6612;49.568;11.000;2023-10-31T04:30:52;15.40;72.40
13093;DHT22;6612;49.568;11.000;2023-10-31T04:33:19;15.30;72.30
13093;DHT22;6612;49.568;11.000;2023-10-31T04:35:45;15.30;72.40
13093;DHT22;6612;49.568;11.000;2023-10-31T04:38:12;15.30;72.60
13093;DHT22;6612;49.568;11.000;2023-10-31T04:40:41;15.30;72.70
13093;DHT22;6612;49.568;11.000;2023-10-31T04:43:08;15.20;72.50
13093;DHT22;6612;49.568;11.000;2023-10-31T04:45:35;15.20;72.60
13093;DHT22;6612;49.568;11.000;2023-10-31T04:48:02;15.20;72.70
13093;DHT22;6612;49.568;11.000;2023-10-31T04:50:29;15.10;72.50
13093;DHT22;6612;49.568;11.000;2023-10-31T04:52:56;15.10;72.50
13093;DHT22;6612;49.568;11.000;2023-10-31T04:55:23;15.10;72.60
13093;DHT22;6612;49.568;11.000;2023-10-31T04:57:51;15.10;72.60
13093;DHT22;6612;49.568;11.000;2023-10-31T05:00:18;15.00;72.50
13093;DHT22;6612;49.568;11.000;2023-10-31T05:02:45;15.00;72.60
13093;DHT22;6612;49.568;11.000;2023-10-31T05:05:12;15.00;72.80
13093;DHT22;6612;49.568;11.000;2023-10-31T05:07:39;15.00;72.90
13093;DHT22;6612;49.568;11.000;2023-10-31T05:10:07;14.90;73.00
13093;DHT22;6612;49.568;11.000;2023-10-31T05:12:34;14.90;73.10
13093;DHT22;6612;49.568;11.000;2023-10-31T05:15:04;14.90;73.20
13093;DHT22;6612;49.568;11.000;2023-10-31T05:17:31;14.90;72.90
13093;DHT22;6612;49.568;11.000;2023-10-31T05:19:58;14.90;73.00
13093;DHT22;6612;49.568;11.000;2023-10-31T05:22:25;14.90;72.80
13093;DHT22;6612;49.568;11.000;2023-10-31T05:24:52;14.90;72.80
13093;DHT22;6612;49.568;11.000;2023-10-31T05:27:19;14.90;72.80
13093;DHT22;6612;49.568;11.000;2023-10-31T05:29:46;14.90;72.90
13093;DHT22;6612;49.568;11.000;2023-10-31T05:32:14;14.90;72.90
13093;DHT22;6612;49.568;11.000;2023-10-31T05:34:41;14.80;72.50
13093;DHT22;6612;49.568;11.000;2023-10-31T05:37:08;14.80;72.60
13093;DHT22;6612;49.568;11.000;2023-10-31T05:39:35;14.80;72.60
13093;DHT22;6612;49.568;11.000;2023-10-31T05:42:03;14.80;72.60
13093;DHT22;6612;49.568;11.000;2023-10-31T05:44:30;14.80;72.60
13093;DHT22;6612;49.568;11.000;2023-10-31T05:46:57;14.80;72.50
13093;DHT22;6612;49.568;11.000;2023-10-31T05:49:25;14.70;72.50
13093;DHT22;6612;49.568;11.000;2023-10-31T05:51:52;14.70;72.40
13093;DHT22;6612;49.568;11.000;2023-10-31T05:54:20;14.70;72.60
13093;DHT22;6612;49.568;11.000;2023-10-31T05:56:47;14.70;72.90
13093;DHT22;6612;49.568;11.000;2023-10-31T05:59:14;14.70;73.00
13093;DHT22;6612;49.568;11.000;2023-10-31T06:01:40;14.70;73.00
13093;DHT22;6612;49.568;11.000;2023-10-31T06:04:09;14.70;73.10
13093;DHT22;6612;49.568;11.000;2023-10-31T06:06:38;14.70;73.10
13093;DHT22;6612;49.568;11.000;2023-10-31T06:09:05;14.70;73.00
13093;DHT22;6612;49.568;11.000;2023-10-31T06:11:32;14.70;73.10
13093;DHT22;6612;49.568;11.000;2023-10-31T06:13:59;14.70;73.00
13093;DHT22;6612;49.568;11.000;2023-10-31T06:16:26;14.70;72.90
13093;DHT22;6612;49.568;11.000;2023-10-31T06:18:53;14.70;72.80
13093;DHT22;6612;49.568;11.000;2023-10-31T06:21:20;14.70;72.70
13093;DHT22;6612;49.568;11.000;2023-10-31T06:23:48;14.70;72.60
13093;DHT22;6612;49.568;11.000;2023-10-31T06:26:16;14.70;72.50
13093;DHT22;6612;49.568;11.000;2023-10-31T06:28:43;14.70;72.80
13093;DHT22;6612;49.568;11.000;2023-10-31T06:31:10;14.70;72.90
13093;DHT22;6612;49.568;11.000;2023-10-31T06:33:37;14.70;72.90
13093;DHT22;6612;49.568;11.000;2023-10-31T06:36:04;14.70;72.90
13093;DHT22;6612;49.568;11.000;2023-10-31T06:38:32;14.80;72.90
13093;DHT22;6612;49.568;11.000;2023-10-31T06:41:00;14.80;72.90
13093;DHT22;6612;49.568;11.000;2023-10-31T06:43:27;14.80;72.70
13093;DHT22;6612;49.568;11.000;2023-10-31T06:45:54;14.80;72.70
13093;DHT22;6612;49.568;11.000;2023-10-31T06:48:22;14.80;72.80
13093;DHT22;6612;49.568;11.000;2023-10-31T06:50:49;14.90;73.00
13093;DHT22;6612;49.568;11.000;2023-10-31T06:53:16;14.90;73.00
13093;DHT22;6612;49.568;11.000;2023-10-31T06:55:43;14.90;73.00
13093;DHT22;6612;49.568;11.000;2023-10-31T06:58:11;15.00;73.10
13093;DHT22;6612;49.568;11.000;2023-10-31T07:00:38;15.00;72.90
13093;DHT22;6612;49.568;11.000;2023-10-31T07:03:05;15.10;73.40
13093;DHT22;6612;49.568;11.000;2023-10-31T07:05:34;15.10;73.50
13093;DHT22;6612;49.568;11.000;2023-10-31T07:08:01;15.10;73.40
13093;DHT22;6612;49.568;11.000;2023-10-31T07:10:29;15.20;73.00
13093;DHT22;6612;49.568;11.000;2023-10-31T07:12:56;15.20;73.00
13093;DHT22;6612;49.568;11.000;2023-10-31T07:15:25;15.30;73.10
13093;DHT22;6612;49.568;11.000;2023-10-31T07:17:52;15.30;72.70
13093;DHT22;6612;49.568;11.000;2023-10-31T07:20:19;15.40;73.10
13093;DHT22;6612;49.568;11.000;2023-10-31T07:22:46;15.40;73.00
13093;DHT22;6612;49.568;11.000;2023-10-31T07:25:13;15.40;72.80
13093;DHT22;6612;49.568;11.000;2023-10-31T07:27:40;15.50;72.70
13093;DHT22;6612;49.568;11.000;2023-10-31T07:30:08;15.50;72.60
13093;DHT22;6612;49.568;11.000;2023-10-31T07:32:36;15.50;72.40
13093;DHT22;6612;49.568;11.000;2023-10-31T07:35:03;15.50;72.00
13093;DHT22;6612;49.568;11.000;2023-10-31T07:37:30;15.50;72.00
13093;DHT22;6612;49.568;11.000;2023-10-31T07:39:57;15.50;71.70
13093;DHT22;6612;49.568;11.000;2023-10-31T07:42:24;15.60;71.80
13093;DHT22;6612;49.568;11.000;2023-10-31T07:44:51;15.60;71.90
13093;DHT22;6612;49.568;11.000;2023-10-31T07:47:18;15.60;72.00
13093;DHT22;6612;49.568;11.000;2023-10-31T07:49:47;15.60;72.20
13093;DHT22;6612;49.568;11.000;2023-10-31T07:52:14;15.60;72.20
13093;DHT22;6612;49.568;11.000;2023-10-31T07:54:41;15.70;72.40
13093;DHT22;6612;49.568;11.000;2023-10-31T07:57:08;15.70;72.20
13093;DHT22;6612;49.568;11.000;2023-10-31T07:59:35;15.80;72.50
13093;DHT22;6612;49.568;11.000;2023-10-31T08:02:02;15.80;72.00
13093;DHT22;6612;49.568;11.000;2023-10-31T08:04:30;15.90;72.00
13093;DHT22;6612;49.568;11.000;2023-10-31T08:06:59;15.90;71.50
13093;DHT22;6612;49.568;11.000;2023-10-31T08:09:26;16.00;70.90
13093;DHT22;6612;49.568;11.000;2023-10-31T08:11:53;15.90;70.70
13093;DHT22;6612;49.568;11.000;2023-10-31T08:14:19;16.00;70.60
13093;DHT22;6612;49.568;11.000;2023-10-31T08:16:47;16.00;70.60
13093;DHT22;6612;49.568;11.000;2023-10-31T08:19:14;16.00;70.40
13093;DHT22;6612;49.568;11.000;2023-10-31T08:21:41;16.00;70.20
13093;DHT22;6612;49.568;11.000;2023-10-31T08:24:10;16.00;70.00
13093;DHT22;6612;49.568;11.000;2023-10-31T08:26:39;16.00;69.70
13093;DHT22;6612;49.568;11.000;2023-10-31T08:29:06;16.00;69.70
13093;DHT22;6612;49.568;11.000;2023-10-31T08:31:33;16.00;69.90
13093;DHT22;6612;49.568;11.000;2023-10-31T08:34:00;16.00;70.20
13093;DHT22;6612;49.568;11.000;2023-10-31T08:36:27;16.10;70.80
13093;DHT22;6612;49.568;11.000;2023-10-31T08:38:54;16.10;70.90
13093;DHT22;6612;49.568;11.000;2023-10-31T08:41:22;16.10;70.90
13093;DHT22;6612;49.568;11.000;2023-10-31T08:43:49;16.20;70.70
13093;DHT22;6612;49.568;11.000;2023-10-31T08:46:16;16.20;70.90
13093;DHT22;6612;49.568;11.000;2023-10-31T08:48:43;16.20;70.60
13093;DHT22;6612;49.568;11.000;2023-10-31T08:51:10;16.20;70.60
13093;DHT22;6612;49.568;11.000;2023-10-31T08:53:37;16.30;70.50
13093;DHT22;6612;49.568;11.000;2023-10-31T08:56:05;16.30;70.40
13093;DHT22;6612;49.568;11.000;2023-10-31T08:58:34;16.30;70.20
13093;DHT22;6612;49.568;11.000;2023-10-31T09:01:01;16.30;69.40
13093;DHT22;6612;49.568;11.000;2023-10-31T09:03:28;16.30;69.40
13093;DHT22;6612;49.568;11.000;2023-10-31T09:05:55;16.30;69.30
13093;DHT22;6612;49.568;11.000;2023-10-31T09:08:22;16.30;69.30
13093;DHT22;6612;49.568;11.000;2023-10-31T09:10:49;16.30;69.30
13093;DHT22;6612;49.568;11.000;2023-10-31T09:13:16;16.30;69.00
13093;DHT22;6612;49.568;11.000;2023-10-31T09:15:44;16.30;68.80
13093;DHT22;6612;49.568;11.000;2023-10-31T09:18:12;16.30;68.60
13093;DHT22;6612;49.568;11.000;2023-10-31T09:20:39;16.30;69.00
13093;DHT22;6612;49.568;11.000;2023-10-31T09:23:06;16.40;69.20
13093;DHT22;6612;49.568;11.000;2023-10-31T09:25:33;16.40;69.00
13093;DHT22;6612;49.568;11.000;2023-10-31T09:28:00;16.40;69.00
13093;DHT22;6612;49.568;11.000;2023-10-31T09:30:27;16.40;69.20
13093;DHT22;6612;49.568;11.000;2023-10-31T09:32:55;16.40;69.30
13093;DHT22;6612;49.568;11.000;2023-10-31T09:35:22;16.50;69.20
13093;DHT22;6612;49.568;11.000;2023-10-31T09:37:49;16.50;69.40
13093;DHT22;6612;49.568;11.000;2023-10-31T09:40:16;16.60;69.50
13093;DHT22;6612;49.568;11.000;2023-10-31T09:42:44;16.60;69.80
13093;DHT22;6612;49.568;11.000;2023-10-31T09:45:11;16.70;70.20
13093;DHT22;6612;49.568;11.000;2023-10-31T09:47:39;16.80;70.30
13093;DHT22;6612;49.568;11.000;2023-10-31T09:50:08;16.90;69.90
13093;DHT22;6612;49.568;11.000;2023-10-31T09:52:35;17.10;69.00
13093;DHT22;6612;49.568;11.000;2023-10-31T09:55:04;17.10;68.70
13093;DHT22;6612;49.568;11.000;2023-10-31T09:57:32;17.20;67.90
13093;DHT22;6612;49.568;11.000;2023-10-31T09:59:59;17.20;67.90
13093;DHT22;6612;49.568;11.000;2023-10-31T10:02:26;17.20;67.60
13093;DHT22;6612;49.568;11.000;2023-10-31T10:04:53;17.20;67.40
13093;DHT22;6612;49.568;11.000;2023-10-31T10:07:21;17.20;67.50
13093;DHT22;6612;49.568;11.000;2023-10-31T10:09:48;17.20;67.20
13093;DHT22;6612;49.568;11.000;2023-10-31T10:12:16;17.20;67.70
13093;DHT22;6612;49.568;11.000;2023-10-31T10:14:45;17.20;67.60
13093;DHT22;6612;49.568;11.000;2023-10-31T10:17:16;17.20;67.30
13093;DHT22;6612;49.568;11.000;2023-10-31T10:19:43;17.30;66.90
13093;DHT22;6612;49.568;11.000;2023-10-31T10:22:10;17.30;67.60
13093;DHT22;6612;49.568;11.000;2023-10-31T10:24:42;17.40;67.80
13093;DHT22;6612;49.568;11.000;2023-10-31T10:27:09;17.40;67.40
13093;DHT22;6612;49.568;11.000;2023-10-31T10:29:38;17.50;68.20
13093;DHT22;6612;49.568;11.000;2023-10-31T10:32:07;17.60;67.60
13093;DHT22;6612;49.568;11.000;2023-10-31T10:34:34;17.60;68.00
13093;DHT22;6612;49.568;11.000;2023-10-31T10:37:04;17.70;68.10
13093;DHT22;6612;49.568;11.000;2023-10-31T10:39:33;17.80;67.50
13093;DHT22;6612;49.568;11.000;2023-10-31T10:42:07;17.90;67.40
13093;DHT22;6612;49.568;11.000;2023-10-31T10:44:36;17.90;66.50
13093;DHT22;6612;49.568;11.000;2023-10-31T10:47:05;18.00;67.40
13093;DHT22;6612;49.568;11.000;2023-10-31T10:49:34;18.10;66.50
13093;DHT22;6612;49.568;11.000;2023-10-31T10:52:16;18.10;66.30
13093;DHT22;6612;49.568;11.000;2023-10-31T10:54:48;18.10;64.60
13093;DHT22;6612;49.568;11.000;2023-10-31T10:57:27;18.10;65.80
13093;DHT22;6612;49.568;11.000;2023-10-31T11:00:02;18.20;64.40
13093;DHT22;6612;49.568;11.000;2023-10-31T11:02:30;18.20;64.70
13093;DHT22;6612;49.568;11.000;2023-10-31T11:04:59;18.20;65.20
13093;DHT22;6612;49.568;11.000;2023-10-31T11:07:28;18.10;65.30
13093;DHT22;6612;49.568;11.000;2023-10-31T11:09:57;18.10;64.90
13093;DHT22;6612;49.568;11.000;2023-10-31T11:12:29;18.10;65.00
13093;DHT22;6612;49.568;11.000;2023-10-31T11:14:57;18.10;64.80
13093;DHT22;6612;49.568;11.000;2023-10-31T11:17:28;18.10;65.20
13093;DHT22;6612;49.568;11.000;2023-10-31T11:19:56;18.10;64.70
13093;DHT22;6612;49.568;11.000;2023-10-31T11:22:23;18.10;64.90
13093;DHT22;6612;49.568;11.000;2023-10-31T11:24:50;18.10;64.50
13093;DHT22;6612;49.568;11.000;2023-10-31T11:27:18;18.10;64.30
13093;DHT22;6612;49.568;11.000;2023-10-31T11:29:47;18.10;64.50
13093;DHT22;6612;49.568;11.000;2023-10-31T11:32:14;18.00;64.00
13093;DHT22;6612;49.568;11.000;2023-10-31T11:34:42;18.00;64.20
13093;DHT22;6612;49.568;11.000;2023-10-31T11:37:23;18.00;64.00
13093;DHT22;6612;49.568;11.000;2023-10-31T11:40:15;18.00;62.90
13093;DHT22;6612;49.568;11.000;2023-10-31T11:42:43;18.00;62.50
13093;DHT22;6612;49.568;11.000;2023-10-31T11:45:12;18.00;64.20
13093;DHT22;6612;49.568;11.000;2023-10-31T11:47:46;18.00;64.20
13093;DHT22;6612;49.568;11.000;2023-10-31T11:50:13;18.00;63.50
13093;DHT22;6612;49.568;11.000;2023-10-31T11:52:40;18.00;64.60
13093;DHT22;6612;49.568;11.000;2023-10-31T11:55:09;18.10;64.50
13093;DHT22;6612;49.568;11.000;2023-10-31T11:57:39;18.20;64.10
13093;DHT22;6612;49.568;11.000;2023-10-31T12:00:06;18.20;64.40
13093;DHT22;6612;49.568;11.000;2023-10-31T12:02:37;18.20;64.20
13093;DHT22;6612;49.568;11.000;2023-10-31T12:05:08;18.20;63.70
13093;DHT22;6612;49.568;11.000;2023-10-31T12:07:42;18.30;62.90
13093;DHT22;6612;49.568;11.000;2023-10-31T12:10:09;18.30;62.50
13093;DHT22;6612;49.568;11.000;2023-10-31T12:12:36;18.30;63.30
13093;DHT22;6612;49.568;11.000;2023-10-31T12:15:05;18.30;63.40
13093;DHT22;6612;49.568;11.000;2023-10-31T12:17:33;18.30;63.10
13093;DHT22;6612;49.568;11.000;2023-10-31T12:20:05;18.30;63.30
13093;DHT22;6612;49.568;11.000;2023-10-31T12:22:32;18.30;62.10
13093;DHT22;6612;49.568;11.000;2023-10-31T12:25:03;18.30;62.90
13093;DHT22;6612;49.568;11.000;2023-10-31T12:27:42;18.30;62.10
13093;DHT22;6612;49.568;11.000;2023-10-31T12:30:10;18.30;62.20
13093;DHT22;6612;49.568;11.000;2023-10-31T12:32:37;18.30;62.70
13093;DHT22;6612;49.568;11.000;2023-10-31T12:35:07;18.30;62.80
13093;DHT22;6612;49.568;11.000;2023-10-31T12:37:36;18.30;62.50
13093;DHT22;6612;49.568;11.000;2023-10-31T12:40:04;18.30;62.60
13093;DHT22;6612;49.568;11.000;2023-10-31T12:42:32;18.30;62.50
13093;DHT22;6612;49.568;11.000;2023-10-31T12:44:59;18.30;62.50
13093;DHT22;6612;49.568;11.000;2023-10-31T12:47:26;18.30;62.30
13093;DHT22;6612;49.568;11.000;2023-10-31T12:50:09;18.30;62.50
13093;DHT22;6612;49.568;11.000;2023-10-31T12:52:47;18.30;60.70
13093;DHT22;6612;49.568;11.000;2023-10-31T12:55:13;18.30;61.20
13093;DHT22;6612;49.568;11.000;2023-10-31T12:57:41;18.30;62.10
13093;DHT22;6612;49.568;11.000;2023-10-31T13:00:08;18.30;62.00
13093;DHT22;6612;49.568;11.000;2023-10-31T13:02:38;18.30;62.10
13093;DHT22;6612;49.568;11.000;2023-10-31T13:05:10;18.30;62.10
13093;DHT22;6612;49.568;11.000;2023-10-31T13:07:39;18.40;61.30
13093;DHT22;6612;49.568;11.000;2023-10-31T13:10:07;18.40;61.70
13093;DHT22;6612;49.568;11.000;2023-10-31T13:12:35;18.40;61.30
13093;DHT22;6612;49.568;11.000;2023-10-31T13:15:04;18.30;61.10
13093;DHT22;6612;49.568;11.000;2023-10-31T13:17:31;18.30;61.40
13093;DHT22;6612;49.568;11.000;2023-10-31T13:19:58;18.30;61.50
13093;DHT22;6612;49.568;11.000;2023-10-31T13:22:26;18.30;61.20
13093;DHT22;6612;49.568;11.000;2023-10-31T13:24:53;18.30;61.00
13093;DHT22;6612;49.568;11.000;2023-10-31T13:27:20;18.40;61.40
13093;DHT22;6612;49.568;11.000;2023-10-31T13:29:47;18.40;61.50
13093;DHT22;6612;49.568;11.000;2023-10-31T13:32:16;18.40;61.40
13093;DHT22;6612;49.568;11.000;2023-10-31T13:34:43;18.40;61.40
13093;DHT22;6612;49.568;11.000;2023-10-31T13:37:10;18.40;61.30
13093;DHT22;6612;49.568;11.000;2023-10-31T13:39:38;18.40;61.30
13093;DHT22;6612;49.568;11.000;2023-10-31T13:42:05;18.40;61.10
13093;DHT22;6612;49.568;11.000;2023-10-31T13:44:32;18.50;61.80
13093;DHT22;6612;49.568;11.000;2023-10-31T13:46:59;18.50;61.80
13093;DHT22;6612;49.568;11.000;2023-10-31T13:49:26;18.50;61.60
13093;DHT22;6612;49.568;11.000;2023-10-31T13:51:54;18.60;61.50
13093;DHT22;6612;49.568;11.000;2023-10-31T13:54:21;18.60;61.50
13093;DHT22;6612;49.568;11.000;2023-10-31T13:56:49;18.60;61.20
13093;DHT22;6612;49.568;11.000;2023-10-31T13:59:16;18.70;60.60
13093;DHT22;6612;49.568;11.000;2023-10-31T14:01:44;18.60;60.60
13093;DHT22;6612;49.568;11.000;2023-10-31T14:04:12;18.70;60.60
13093;DHT22;6612;49.568;11.000;2023-10-31T14:06:40;18.60;60.10
13093;DHT22;6612;49.568;11.000;2023-10-31T14:09:08;18.60;60.00
13093;DHT22;6612;49.568;11.000;2023-10-31T14:11:37;18.60;60.00
13093;DHT22;6612;49.568;11.000;2023-10-31T14:14:06;18.50;59.80
13093;DHT22;6612;49.568;11.000;2023-10-31T14:16:36;18.50;59.40
13093;DHT22;6612;49.568;11.000;2023-10-31T14:19:04;18.50;59.80
13093;DHT22;6612;49.568;11.000;2023-10-31T14:21:32;18.40;59.60
13093;DHT22;6612;49.568;11.000;2023-10-31T14:24:00;18.40;59.60
13093;DHT22;6612;49.568;11.000;2023-10-31T14:26:29;18.30;59.50
13093;DHT22;6612;49.568;11.000;2023-10-31T14:28:58;18.30;59.60
13093;DHT22;6612;49.568;11.000;2023-10-31T14:31:27;18.20;59.30
13093;DHT22;6612;49.568;11.000;2023-10-31T14:33:54;18.20;59.30
13093;DHT22;6612;49.568;11.000;2023-10-31T14:36:21;18.10;59.50
13093;DHT22;6612;49.568;11.000;2023-10-31T14:38:48;18.10;59.50
13093;DHT22;6612;49.568;11.000;2023-10-31T14:41:15;18.00;59.40
13093;DHT22;6612;49.568;11.000;2023-10-31T14:43:42;18.00;59.60
13093;DHT22;6612;49.568;11.000;2023-10-31T14:46:09;17.90;59.60
13093;DHT22;6612;49.568;11.000;2023-10-31T14:48:37;17.90;59.80
13093;DHT22;6612;49.568;11.000;2023-10-31T14:51:05;17.80;59.60
13093;DHT22;6612;49.568;11.000;2023-10-31T14:53:32;17.80;60.00
13093;DHT22;6612;49.568;11.000;2023-10-31T14:56:00;17.70;59.80
13093;DHT22;6612;49.568;11.000;2023-10-31T14:58:28;17.70;59.80
13093;DHT22;6612;49.568;11.000;2023-10-31T15:00:55;17.60;59.70
13093;DHT22;6612;49.568;11.000;2023-10-31T15:03:22;17.60;59.90
13093;DHT22;6612;49.568;11.000;2023-10-31T15:05:50;17.50;59.90
13093;DHT22;6612;49.568;11.000;2023-10-31T15:08:17;17.50;59.80
13093;DHT22;6612;49.568;11.000;2023-10-31T15:10:45;17.50;59.90
13093;DHT22;6612;49.568;11.000;2023-10-31T15:13:12;17.40;59.80
13093;DHT22;6612;49.568;11.000;2023-10-31T15:15:39;17.40;59.80
13093;DHT22;6612;49.568;11.000;2023-10-31T15:18:06;17.30;59.80
13093;DHT22;6612;49.568;11.000;2023-10-31T15:20:33;17.30;59.90
13093;DHT22;6612;49.568;11.000;2023-10-31T15:23:01;17.20;59.70
13093;DHT22;6612;49.568;11.000;2023-10-31T15:25:29;17.20;59.70
13093;DHT22;6612;49.568;11.000;2023-10-31T15:27:56;17.10;60.00
13093;DHT22;6612;49.568;11.000;2023-10-31T15:30:23;17.10;60.20
13093;DHT22;6612;49.568;11.000;2023-10-31T15:32:49;17.10;60.40